createdAt,value
2019-04-06T00:02:00.286Z,8.10
2019-04-06T00:04:29.635Z,8.07
2019-04-06T00:06:59.003Z,8.60
2019-04-06T00:09:28.350Z,12.67
2019-04-06T00:11:57.727Z,13.20
2019-04-06T00:14:27.070Z,9.30
2019-04-06T00:16:56.455Z,12.07
2019-04-06T00:19:25.787Z,10.70
2019-04-06T00:21:55.159Z,10.17
2019-04-06T00:24:24.502Z,11.33
2019-04-06T00:26:53.875Z,11.43
2019-04-06T00:29:23.215Z,14.10
2019-04-06T00:32:05.966Z,10.13
2019-04-06T00:34:35.335Z,9.73
2019-04-06T00:37:04.712Z,13.20
2019-04-06T00:39:34.072Z,13.87
2019-04-06T00:42:03.456Z,12.10
2019-04-06T00:44:32.820Z,12.00
2019-04-06T00:47:02.261Z,12.27
2019-04-06T00:49:31.603Z,10.83
2019-04-06T00:52:00.980Z,8.83
2019-04-06T00:54:30.335Z,9.00
2019-04-06T00:56:59.679Z,13.00
2019-04-06T00:59:29.139Z,9.37
2019-04-06T01:01:58.478Z,9.10
2019-04-06T01:04:27.892Z,9.30
2019-04-06T01:06:57.239Z,8.97
2019-04-06T01:09:26.620Z,9.20
2019-04-06T01:11:55.968Z,12.23
2019-04-06T01:14:25.339Z,11.60
2019-04-06T01:16:54.790Z,13.50
2019-04-06T01:19:24.154Z,12.63
2019-04-06T01:21:53.495Z,12.60
2019-04-06T01:24:22.871Z,10.93
2019-04-06T01:26:52.224Z,10.90
2019-04-06T01:29:21.634Z,8.60
2019-04-06T01:31:50.934Z,8.70
2019-04-06T01:34:20.329Z,11.10
2019-04-06T01:36:49.675Z,11.27
2019-04-06T01:39:19.047Z,10.10
2019-04-06T01:41:48.394Z,9.23
2019-04-06T01:44:17.768Z,9.50
2019-04-06T01:46:47.116Z,9.33
2019-04-06T01:49:16.471Z,9.40
2019-04-06T01:51:45.822Z,8.83
2019-04-06T01:54:15.276Z,10.10
2019-04-06T01:56:44.643Z,8.40
2019-04-06T01:59:14.115Z,11.50
2019-04-06T02:01:59.086Z,9.97
2019-04-06T02:04:28.465Z,9.77
2019-04-06T02:06:57.811Z,9.93
2019-04-06T02:09:27.187Z,9.70
2019-04-06T02:11:56.530Z,12.33
2019-04-06T02:14:25.901Z,9.90
2019-04-06T02:16:55.248Z,13.60
2019-04-06T02:19:24.626Z,11.83
2019-04-06T02:21:53.971Z,9.47
2019-04-06T02:24:23.376Z,8.47
2019-04-06T02:26:52.796Z,9.23
2019-04-06T02:29:22.205Z,8.97
2019-04-06T02:32:09.644Z,7.40
2019-04-06T02:35:07.049Z,7.33
2019-04-06T02:38:01.440Z,10.97
2019-04-06T02:40:47.715Z,10.50
2019-04-06T02:43:25.628Z,10.53
2019-04-06T02:45:54.973Z,9.57
2019-04-06T02:48:24.350Z,10.90
2019-04-06T02:50:53.708Z,9.97
2019-04-06T02:53:23.071Z,9.43
2019-04-06T02:55:52.421Z,10.00
2019-04-06T02:58:23.309Z,8.90
2019-04-06T03:00:52.800Z,12.77
2019-04-06T03:03:22.294Z,11.60
2019-04-06T03:05:51.722Z,12.60
2019-04-06T03:08:21.073Z,14.10
2019-04-06T03:10:50.441Z,12.30
2019-04-06T03:13:19.792Z,14.37
2019-04-06T03:15:49.168Z,10.83
2019-04-06T03:18:18.545Z,10.50
2019-04-06T03:20:47.894Z,11.20
2019-04-06T03:23:17.261Z,9.53
2019-04-06T03:25:46.658Z,9.80
2019-04-06T03:28:16.001Z,9.40
2019-04-06T03:30:45.802Z,7.27
2019-04-06T03:33:15.554Z,7.37
2019-04-06T03:35:47.712Z,7.20
2019-04-06T03:38:15.995Z,11.43
2019-04-06T03:40:45.553Z,11.37
2019-04-06T03:43:14.982Z,8.73
2019-04-06T03:45:44.347Z,11.47
2019-04-06T03:48:13.680Z,13.33
2019-04-06T03:50:43.248Z,12.67
2019-04-06T03:53:12.688Z,13.73
2019-04-06T03:55:42.032Z,10.63
2019-04-06T03:58:11.375Z,9.97
2019-04-06T04:00:40.733Z,11.27
2019-04-06T04:03:10.332Z,11.07
2019-04-06T04:05:40.035Z,12.03
2019-04-06T04:08:09.361Z,9.70
2019-04-06T04:10:40.265Z,10.60
2019-04-06T04:13:09.843Z,14.53
2019-04-06T04:15:39.338Z,19.63
2019-04-06T04:18:08.689Z,17.37
2019-04-06T04:20:38.056Z,23.57
2019-04-06T04:23:07.403Z,19.73
2019-04-06T04:25:37.064Z,18.83
2019-04-06T04:28:06.399Z,22.57
2019-04-06T04:30:35.736Z,20.27
2019-04-06T04:33:05.137Z,20.80
2019-04-06T04:35:34.474Z,19.60
2019-04-06T04:38:03.828Z,23.73
2019-04-06T04:40:33.257Z,21.33
2019-04-06T04:43:02.643Z,18.13
2019-04-06T04:45:31.982Z,24.87
2019-04-06T04:48:01.438Z,20.43
2019-04-06T04:50:30.732Z,22.67
2019-04-06T04:53:00.096Z,26.73
2019-04-06T04:55:29.428Z,28.80
2019-04-06T04:57:59.098Z,27.23
2019-04-06T05:00:28.390Z,30.77
2019-04-06T05:02:57.805Z,31.23
2019-04-06T05:05:27.072Z,27.40
2019-04-06T05:07:56.428Z,31.23
2019-04-06T05:10:25.767Z,34.83
2019-04-06T05:12:55.157Z,31.80
2019-04-06T05:15:46.011Z,29.67
2019-04-06T05:18:15.367Z,34.80
2019-04-06T05:20:44.716Z,30.30
2019-04-06T05:23:14.101Z,40.97
2019-04-06T05:25:43.451Z,40.70
2019-04-06T05:28:12.933Z,37.60
2019-04-06T05:30:42.257Z,33.60
2019-04-06T05:33:11.638Z,36.50
2019-04-06T05:35:41.030Z,41.07
2019-04-06T05:38:10.383Z,39.87
2019-04-06T05:40:39.731Z,40.27
2019-04-06T05:43:09.130Z,47.67
2019-04-06T05:45:38.440Z,48.10
2019-04-06T05:48:07.999Z,50.77
2019-04-06T05:50:37.331Z,42.43
2019-04-06T05:53:06.774Z,42.50
2019-04-06T05:55:36.029Z,45.00
2019-04-06T05:58:09.780Z,48.50
2019-04-06T06:00:39.943Z,44.87
2019-04-06T06:03:08.612Z,37.00
2019-04-06T06:05:41.019Z,46.87
2019-04-06T06:08:09.680Z,46.20
2019-04-06T06:10:39.039Z,45.40
2019-04-06T06:13:08.400Z,46.23
2019-04-06T06:15:37.740Z,41.10
2019-04-06T06:18:07.096Z,39.00
2019-04-06T06:20:36.428Z,39.43
2019-04-06T06:23:05.792Z,38.37
2019-04-06T06:25:35.119Z,38.57
2019-04-06T06:28:13.816Z,40.17
2019-04-06T06:30:35.466Z,41.97
2019-04-06T06:33:04.848Z,40.20
2019-04-06T06:35:34.224Z,42.93
2019-04-06T06:38:03.723Z,36.80
2019-04-06T06:40:33.276Z,40.97
2019-04-06T06:43:02.672Z,42.43
2019-04-06T06:45:32.016Z,39.57
2019-04-06T06:48:01.370Z,41.47
2019-04-06T06:50:30.862Z,43.67
2019-04-06T06:53:00.280Z,40.30
2019-04-06T06:55:29.616Z,41.73
2019-04-06T06:57:59.124Z,41.40
2019-04-06T07:00:28.503Z,39.13
2019-04-06T07:02:57.867Z,39.70
2019-04-06T07:05:27.214Z,36.07
2019-04-06T07:07:56.554Z,37.60
2019-04-06T07:10:26.265Z,36.17
2019-04-06T07:12:55.658Z,35.23
2019-04-06T07:15:25.030Z,36.70
2019-04-06T07:17:54.377Z,34.40
2019-04-06T07:20:23.736Z,35.33
2019-04-06T07:22:53.097Z,38.70
2019-04-06T07:25:22.605Z,36.17
2019-04-06T07:27:51.995Z,36.60
2019-04-06T07:30:21.426Z,36.23
2019-04-06T07:32:50.737Z,35.20
2019-04-06T07:35:20.103Z,35.20
2019-04-06T07:37:49.430Z,35.00
2019-04-06T07:40:19.839Z,34.33
2019-04-06T07:42:49.241Z,33.30
2019-04-06T07:45:18.737Z,33.60
2019-04-06T07:47:48.083Z,33.57
2019-04-06T07:50:17.401Z,34.00
2019-04-06T07:52:46.768Z,31.87
2019-04-06T07:55:16.120Z,29.60
2019-04-06T07:57:45.467Z,29.80
2019-04-06T08:00:15.129Z,27.83
2019-04-06T08:02:44.462Z,29.00
2019-04-06T08:05:13.828Z,26.33
2019-04-06T08:07:43.342Z,26.20
2019-04-06T08:10:12.931Z,25.33
2019-04-06T08:12:42.280Z,25.30
2019-04-06T08:15:11.759Z,25.67
2019-04-06T08:17:41.087Z,22.83
2019-04-06T08:20:10.559Z,25.43
2019-04-06T08:22:39.908Z,23.73
2019-04-06T08:25:09.387Z,22.80
2019-04-06T08:27:38.971Z,22.63
2019-04-06T08:30:09.230Z,20.77
2019-04-06T08:32:38.842Z,20.07
2019-04-06T08:35:08.812Z,22.80
2019-04-06T08:37:38.162Z,19.90
2019-04-06T08:40:07.930Z,20.30
2019-04-06T08:42:37.283Z,18.53
2019-04-06T08:45:07.029Z,21.40
2019-04-06T08:47:36.330Z,20.57
2019-04-06T08:50:07.392Z,18.50
2019-04-06T08:52:36.761Z,17.40
2019-04-06T08:55:06.803Z,16.70
2019-04-06T08:57:36.171Z,18.87
2019-04-06T09:00:06.834Z,15.33
2019-04-06T09:02:36.293Z,16.17
2019-04-06T09:05:05.904Z,15.70
2019-04-06T09:07:35.256Z,15.30
2019-04-06T09:10:05.300Z,17.60
2019-04-06T09:12:34.641Z,14.87
2019-04-06T09:15:04.996Z,15.90
2019-04-06T09:17:34.292Z,14.07
2019-04-06T09:20:03.651Z,14.60
2019-04-06T09:22:33.012Z,14.07
2019-04-06T09:25:02.542Z,14.80
2019-04-06T09:27:31.903Z,14.70
2019-04-06T09:30:01.252Z,12.93
2019-04-06T09:32:30.638Z,10.73
2019-04-06T09:34:59.978Z,11.27
2019-04-06T09:37:29.338Z,10.33
2019-04-06T09:39:58.669Z,11.57
2019-04-06T09:42:28.033Z,11.00
2019-04-06T09:45:16.330Z,11.03
2019-04-06T09:47:56.857Z,11.73
2019-04-06T09:50:43.919Z,11.87
2019-04-06T09:53:28.823Z,11.27
2019-04-06T09:56:14.105Z,9.07
2019-04-06T09:59:02.479Z,10.87
2019-04-06T10:01:50.800Z,10.67
2019-04-06T10:04:51.404Z,12.17
2019-04-06T10:07:48.889Z,11.23
2019-04-06T10:10:35.981Z,10.70
2019-04-06T10:13:24.536Z,11.60
2019-04-06T10:16:01.390Z,10.87
2019-04-06T10:18:58.528Z,9.63
2019-04-06T10:21:49.740Z,10.73
2019-04-06T10:24:32.865Z,11.63
2019-04-06T10:31:27.968Z,11.27
2019-04-06T10:34:24.059Z,11.60
2019-04-06T10:37:15.561Z,9.50
2019-04-06T10:39:56.848Z,11.47
2019-04-06T10:42:59.926Z,9.20
2019-04-06T10:45:37.106Z,11.10
2019-04-06T10:48:17.876Z,9.00
2019-04-06T10:51:10.399Z,8.47
2019-04-06T10:53:46.983Z,9.43
2019-04-06T10:56:37.164Z,11.13
2019-04-06T10:59:37.566Z,8.97
2019-04-06T11:02:32.045Z,10.80
2019-04-06T11:05:19.045Z,10.50
2019-04-06T11:07:53.139Z,10.90
2019-04-06T11:10:41.608Z,10.20
2019-04-06T11:13:29.964Z,10.23
2019-04-06T11:16:13.639Z,7.90
2019-04-06T11:19:00.852Z,7.97
2019-04-06T11:21:47.820Z,8.97
2019-04-06T11:24:36.161Z,8.23
2019-04-06T11:27:20.995Z,8.40
2019-04-06T11:30:15.448Z,7.47
2019-04-06T11:33:03.851Z,9.47
2019-04-06T11:36:01.006Z,9.60
2019-04-06T11:38:49.345Z,8.50
2019-04-06T11:41:36.719Z,8.50
2019-04-06T11:44:14.379Z,9.50
2019-04-06T11:46:51.856Z,9.60
2019-04-06T11:49:38.875Z,10.23
2019-04-06T11:52:15.857Z,11.00
2019-04-06T11:54:53.413Z,10.30
2019-04-06T11:57:41.759Z,10.70
2019-04-06T12:00:28.785Z,10.10
2019-04-06T12:03:22.927Z,11.00
2019-04-06T12:06:11.309Z,11.10
2019-04-06T12:09:08.484Z,11.13
2019-04-06T12:12:02.802Z,11.47
2019-04-06T12:14:51.395Z,11.00
2019-04-06T12:17:42.787Z,10.93
2019-04-06T12:20:30.448Z,11.50
2019-04-06T12:23:21.595Z,13.07
2019-04-06T12:26:00.511Z,10.50
2019-04-06T12:28:48.943Z,11.90
2019-04-06T12:31:43.327Z,11.40
2019-04-06T12:34:34.714Z,11.13
2019-04-06T12:37:28.312Z,12.03
2019-04-06T12:40:16.584Z,13.10
2019-04-06T12:43:16.776Z,10.97
2019-04-06T12:46:07.997Z,13.40
2019-04-06T12:48:52.515Z,10.50
2019-04-06T12:51:46.643Z,10.70
2019-04-06T12:54:35.071Z,12.90
2019-04-06T12:57:16.688Z,12.93
2019-04-06T13:00:23.278Z,11.17
2019-04-06T13:03:11.563Z,11.20
2019-04-06T13:06:08.949Z,11.57
2019-04-06T13:08:51.508Z,11.60
2019-04-06T13:11:35.501Z,11.77
2019-04-06T13:14:17.473Z,11.40
2019-04-06T13:17:08.717Z,12.70
2019-04-06T13:19:57.056Z,12.07
2019-04-06T13:22:41.899Z,11.20
2019-04-06T13:25:28.876Z,10.30
2019-04-06T13:28:35.632Z,12.37
2019-04-06T13:31:23.948Z,11.63
2019-04-06T13:34:04.106Z,11.00
2019-04-06T13:36:46.531Z,13.33
2019-04-06T13:39:34.462Z,12.77
2019-04-06T13:42:23.326Z,10.50
2019-04-06T13:44:59.068Z,12.00
2019-04-06T13:47:56.674Z,12.20
2019-04-06T13:50:45.203Z,10.17
2019-04-06T13:53:36.827Z,12.27
2019-04-06T13:56:22.924Z,11.43
2019-04-06T13:59:11.215Z,10.70
2019-04-06T14:01:53.069Z,11.00
2019-04-06T14:04:28.052Z,11.03
2019-04-06T14:07:11.338Z,10.27
2019-04-06T14:09:46.784Z,11.30
2019-04-06T14:12:27.261Z,10.10
2019-04-06T14:15:11.507Z,10.03
2019-04-06T14:18:18.238Z,10.87
2019-04-06T14:21:05.080Z,10.60
2019-04-06T14:24:02.256Z,10.00
2019-04-06T14:27:02.863Z,10.30
2019-04-06T14:29:51.544Z,10.70
2019-04-06T14:32:39.771Z,9.60
2019-04-06T14:35:23.620Z,10.10
2019-04-06T14:38:14.716Z,10.70
2019-04-06T14:41:03.011Z,9.73
2019-04-06T14:43:42.243Z,11.40
2019-04-06T14:46:29.132Z,9.63
2019-04-06T14:49:31.280Z,9.70
2019-04-06T14:52:31.868Z,10.73
2019-04-06T14:55:08.897Z,9.43
2019-04-06T14:58:02.689Z,9.30
2019-04-06T15:00:54.183Z,10.80
2019-04-06T15:03:49.265Z,9.20
2019-04-06T15:06:31.596Z,9.27
2019-04-06T15:09:26.719Z,9.73
2019-04-06T15:12:23.971Z,9.90
2019-04-06T15:15:06.290Z,8.50
2019-04-06T15:18:00.671Z,9.60
2019-04-06T15:20:40.566Z,10.03
2019-04-06T15:23:17.267Z,10.43
2019-04-06T15:26:04.375Z,9.43
2019-04-06T15:28:51.510Z,11.17
2019-04-06T15:31:48.099Z,10.00
2019-04-06T15:34:22.769Z,10.90
2019-04-06T15:37:11.248Z,10.20
2019-04-06T15:40:02.311Z,9.70
2019-04-06T15:42:56.641Z,10.00
2019-04-06T15:45:48.032Z,9.70
2019-04-06T15:48:39.108Z,9.60
2019-04-06T15:51:23.531Z,10.40
2019-04-06T15:54:02.417Z,10.50
2019-04-06T15:56:42.277Z,10.93
2019-04-06T15:59:31.488Z,9.17
2019-04-06T16:02:09.649Z,9.93
2019-04-06T16:04:57.997Z,10.00
2019-04-06T16:07:45.189Z,8.50
2019-04-06T16:10:33.607Z,11.00
2019-04-06T16:13:18.875Z,10.40
2019-04-06T16:15:57.218Z,9.50
2019-04-06T16:18:44.304Z,9.80
2019-04-06T16:21:44.855Z,9.60
2019-04-06T16:24:33.497Z,9.40
2019-04-06T16:27:20.454Z,10.40
2019-04-06T16:30:02.616Z,10.57
2019-04-06T16:32:49.909Z,9.13
2019-04-06T16:35:41.283Z,11.80
2019-04-06T16:38:41.503Z,9.40
2019-04-06T16:41:22.380Z,9.87
2019-04-06T16:44:10.672Z,9.10
2019-04-06T16:47:08.275Z,9.67
2019-04-06T16:50:02.551Z,9.60
2019-04-06T16:52:56.921Z,10.77
2019-04-06T16:55:48.004Z,10.83
2019-04-06T16:58:34.980Z,10.17
2019-04-06T17:01:38.541Z,10.07
2019-04-06T17:04:24.696Z,9.20
2019-04-06T17:07:22.016Z,10.67
2019-04-06T17:10:09.420Z,9.70
2019-04-06T17:12:55.848Z,9.80
2019-04-06T17:15:44.557Z,9.87
2019-04-06T17:18:27.567Z,10.57
2019-04-06T17:21:06.567Z,10.70
2019-04-06T17:23:54.877Z,11.27
2019-04-06T17:26:40.048Z,10.90
2019-04-06T17:29:22.393Z,11.50
2019-04-06T17:32:33.913Z,12.80
2019-04-06T17:35:11.487Z,11.13
2019-04-06T17:37:58.680Z,11.67
2019-04-06T17:41:05.336Z,11.30
2019-04-06T17:43:55.831Z,11.53
2019-04-06T17:46:34.609Z,13.60
2019-04-06T17:49:29.274Z,12.37
2019-04-06T17:52:26.723Z,12.00
2019-04-06T17:55:27.017Z,14.20
2019-04-06T17:58:15.344Z,14.77
2019-04-06T18:01:09.642Z,14.50
2019-04-06T18:04:00.737Z,12.70
2019-04-06T18:06:58.195Z,13.97
2019-04-06T18:09:36.370Z,15.67
2019-04-06T18:12:21.549Z,14.20
2019-04-06T18:14:50.848Z,13.40
2019-04-06T18:17:20.248Z,15.40
2019-04-06T18:19:49.603Z,16.40
2019-04-06T18:22:19.335Z,16.70
2019-04-06T18:24:48.961Z,15.60
2019-04-06T18:27:18.444Z,15.60
2019-04-06T18:29:47.812Z,16.07
2019-04-06T18:32:31.851Z,17.70
2019-04-06T18:35:01.798Z,16.43
2019-04-06T18:37:50.318Z,17.10
2019-04-06T18:40:38.130Z,17.83
2019-04-06T18:43:07.547Z,16.63
2019-04-06T18:45:36.887Z,17.20
2019-04-06T18:48:06.679Z,15.60
2019-04-06T18:50:38.750Z,17.80
2019-04-06T18:53:07.096Z,16.97
2019-04-06T18:55:36.933Z,18.70
2019-04-06T18:58:11.282Z,21.07
2019-04-06T19:00:37.443Z,18.87
2019-04-06T19:03:14.074Z,20.73
2019-04-06T19:05:38.111Z,21.57
2019-04-06T19:08:08.425Z,20.93
2019-04-06T19:10:38.264Z,19.83
2019-04-06T19:13:07.600Z,18.37
2019-04-06T19:15:36.964Z,20.20
2019-04-06T19:18:06.299Z,19.93
2019-04-06T19:20:36.103Z,21.20
2019-04-06T19:23:05.509Z,18.93
2019-04-06T19:25:35.378Z,20.53
2019-04-06T19:28:04.804Z,21.10
2019-04-06T19:30:34.169Z,18.93
2019-04-06T19:33:03.553Z,17.97
2019-04-06T19:35:33.122Z,19.37
2019-04-06T19:38:03.083Z,19.13
2019-04-06T19:40:32.610Z,17.87
2019-04-06T19:43:01.947Z,18.57
2019-04-06T19:45:31.308Z,21.27
2019-04-06T19:48:00.661Z,18.17
2019-04-06T19:50:30.440Z,19.00
2019-04-06T19:53:00.165Z,18.57
2019-04-06T19:55:29.563Z,20.10
2019-04-06T19:57:59.667Z,20.47
2019-04-06T20:00:29.176Z,17.30
2019-04-06T20:02:58.517Z,19.90
2019-04-06T20:05:27.876Z,17.87
2019-04-06T20:07:57.211Z,18.97
2019-04-06T20:10:26.588Z,18.40
2019-04-06T20:12:55.929Z,18.30
2019-04-06T20:15:25.270Z,19.70
2019-04-06T20:17:54.857Z,18.93
2019-04-06T20:20:24.259Z,18.93
2019-04-06T20:22:53.702Z,17.77
2019-04-06T20:25:23.098Z,18.13
2019-04-06T20:27:52.469Z,17.20
2019-04-06T20:30:21.920Z,18.23
2019-04-06T20:32:51.291Z,17.23
2019-04-06T20:35:20.636Z,16.60
2019-04-06T20:37:50.060Z,15.60
2019-04-06T20:40:19.552Z,14.33
2019-04-06T20:42:49.470Z,14.67
2019-04-06T20:45:19.268Z,13.83
2019-04-06T20:47:48.628Z,14.33
2019-04-06T20:50:18.050Z,13.40
2019-04-06T20:52:47.367Z,14.57
2019-04-06T20:55:16.708Z,13.33
2019-04-06T20:57:46.181Z,14.00
2019-04-06T21:00:15.724Z,14.63
2019-04-06T21:02:45.162Z,15.90
2019-04-06T21:05:14.900Z,15.70
2019-04-06T21:07:44.876Z,15.87
2019-04-06T21:10:14.318Z,16.73
2019-04-06T21:12:44.150Z,15.53
2019-04-06T21:15:18.945Z,15.17
2019-04-06T21:17:44.935Z,13.67
2019-04-06T21:20:15.264Z,15.57
2019-04-06T21:22:45.216Z,16.80
2019-04-06T21:25:14.756Z,16.20
2019-04-06T21:27:44.875Z,16.10
2019-04-06T21:30:14.564Z,15.27
2019-04-06T21:32:43.948Z,15.07
2019-04-06T21:35:13.671Z,14.90
2019-04-06T21:37:43.789Z,15.07
2019-04-06T21:40:13.363Z,15.83
2019-04-06T21:42:43.224Z,18.07
2019-04-06T21:45:13.100Z,17.33
2019-04-06T21:47:43.031Z,16.20
2019-04-06T21:50:12.556Z,16.57
2019-04-06T21:52:41.888Z,16.80
2019-04-06T21:55:13.824Z,17.93
2019-04-06T21:57:43.402Z,17.53
2019-04-06T22:00:16.743Z,19.60
2019-04-06T22:02:46.119Z,17.60
2019-04-06T22:05:15.955Z,18.57
2019-04-06T22:07:49.606Z,17.80
2019-04-06T22:10:16.316Z,20.17
2019-04-06T22:12:45.664Z,20.57
2019-04-06T22:15:16.387Z,19.50
2019-04-06T22:17:45.728Z,20.50
2019-04-06T22:20:15.287Z,22.03
2019-04-06T22:22:44.622Z,19.77
2019-04-06T22:25:14.408Z,17.87
2019-04-06T22:27:43.873Z,20.20
2019-04-06T22:30:13.456Z,20.30
2019-04-06T22:32:42.824Z,19.03
2019-04-06T22:35:12.502Z,20.53
2019-04-06T22:37:41.897Z,19.90
2019-04-06T22:40:11.676Z,20.10
2019-04-06T22:42:41.115Z,22.07
2019-04-06T22:45:12.215Z,20.47
2019-04-06T22:47:41.576Z,19.40
2019-04-06T22:50:10.890Z,22.20
2019-04-06T22:52:40.223Z,21.03
2019-04-06T22:55:10.183Z,19.93
2019-04-06T22:57:39.887Z,20.50
2019-04-06T23:00:11.372Z,21.83
2019-04-06T23:02:57.664Z,20.67
2019-04-06T23:05:31.509Z,18.10
2019-04-06T23:08:01.005Z,17.87
2019-04-06T23:10:30.478Z,16.83
2019-04-06T23:12:59.827Z,17.13
2019-04-06T23:15:29.219Z,18.03
2019-04-06T23:17:59.094Z,19.57
2019-04-06T23:20:28.515Z,15.97
2019-04-06T23:22:58.198Z,15.83
2019-04-06T23:25:27.933Z,16.70
2019-04-06T23:27:58.296Z,18.03
2019-04-06T23:30:28.217Z,19.40
2019-04-06T23:32:58.187Z,20.93
2019-04-06T23:35:27.610Z,19.10
2019-04-06T23:37:57.312Z,18.60
2019-04-06T23:40:27.077Z,18.30
2019-04-06T23:42:56.562Z,19.23
2019-04-06T23:45:26.234Z,19.67
2019-04-06T23:47:55.892Z,19.50
2019-04-06T23:50:25.237Z,16.80
2019-04-06T23:52:54.606Z,16.07
2019-04-06T23:55:23.935Z,20.17
2019-04-06T23:57:53.346Z,17.70
